Time;durP1;ratioP1;P1;durP2;ratioP2;P2;SDS_P1;SDS_P2;PMS_P1;PMS_P2;Temp;Humidity;BMP_temperature;BMP_pressure;BME280_temperature;BME280_humidity;BME280_pressure;Samples;Min_cycle;Max_cycle;Signal;HPM_P1;HPM_P2
2021/05/19 00:00:08;;;;;;;3.85;0.40;;;13.00;99.90;;;12.50;84.72;100101.72;4990665;28;20486;-56
2021/05/19 00:02:34;;;;;;;4.82;0.20;;;13.00;99.90;;;12.51;84.42;100100.72;4989785;28;20042;-58
2021/05/19 00:05:00;;;;;;;1.55;0.20;;;13.00;99.90;;;12.56;84.37;100107.09;4969059;28;20085;-58
2021/05/19 00:07:26;;;;;;;5.50;0.30;;;13.10;99.90;;;12.57;85.40;100110.53;4987030;28;20038;-58
2021/05/19 00:09:52;;;;;;;3.00;0.40;;;13.10;99.90;;;12.53;86.39;100117.06;4990004;28;20033;-58
2021/05/19 00:12:18;;;;;;;1.95;0.20;;;13.10;99.90;;;12.52;86.73;100111.03;4990978;28;20409;-57
2021/05/19 00:14:44;;;;;;;3.20;0.20;;;13.10;99.90;;;12.56;86.20;100117.56;4989898;28;20201;-54
2021/05/19 00:17:09;;;;;;;2.55;0.35;;;13.10;99.90;;;12.55;85.71;100120.34;4988597;28;20059;-56
2021/05/19 00:19:35;;;;;;;1.70;0.20;;;13.10;99.90;;;12.49;86.01;100123.59;4990085;28;20037;-57
2021/05/19 00:22:01;;;;;;;5.30;0.43;;;13.00;99.90;;;12.50;85.44;100120.00;4982989;28;20129;-58
2021/05/19 00:24:28;;;;;;;1.98;0.20;;;13.00;99.90;;;12.49;85.31;100121.81;4990323;28;20050;-57
2021/05/19 00:26:54;;;;;;;3.80;0.50;;;13.00;99.90;;;12.49;84.83;100126.22;4989926;28;20046;-59
2021/05/19 00:29:20;;;;;;;1.50;0.10;;;13.00;99.90;;;12.48;84.63;100130.63;4990297;28;20042;-58
2021/05/19 00:31:46;;;;;;;1.60;0.20;;;13.00;99.90;;;12.46;84.81;100131.78;4989463;28;20564;-58
2021/05/19 00:34:15;;;;;;;2.72;0.73;;;13.00;99.90;;;12.43;84.91;100140.75;4990390;28;20257;-58
2021/05/19 00:36:42;;;;;;;2.70;0.15;;;13.00;99.90;;;12.47;84.12;100146.47;4989903;28;20549;-58
2021/05/19 00:39:11;;;;;;;0.68;0.32;;;13.00;99.90;;;12.48;84.71;100142.88;4989807;28;20078;-58
2021/05/19 00:41:41;;;;;;;3.72;0.10;;;13.00;99.90;;;12.48;85.13;100140.25;4989814;28;20038;-58
2021/05/19 00:44:17;;;;;;;3.05;0.30;;;13.00;99.90;;;12.43;86.38;100143.38;4981486;28;20078;-56
2021/05/19 00:46:44;;;;;;;;;;;13.00;99.90;;;12.34;87.79;100143.53;4989887;28;20043;-58
2021/05/19 00:49:10;;;;;;;3.95;0.22;;;12.90;99.90;;;12.27;86.45;100140.78;4990019;28;19921;-59
2021/05/19 00:51:36;;;;;;;3.83;0.68;;;12.90;99.90;;;12.25;86.48;100140.94;4989743;28;20403;-59
2021/05/19 00:54:03;;;;;;;4.00;0.20;;;12.80;99.90;;;12.22;86.68;100132.59;4989637;28;20034;-58
2021/05/19 00:56:30;;;;;;;2.20;0.30;;;12.80;99.90;;;12.18;86.98;100129.50;4958911;28;20027;-59
2021/05/19 00:59:00;;;;;;;2.92;0.20;;;12.80;99.90;;;12.17;87.05;100138.31;4970336;28;20057;-59
2021/05/19 01:01:29;;;;;;;4.47;0.30;;;12.80;99.90;;;12.17;86.76;100133.09;4989540;28;20095;-58
2021/05/19 01:03:55;;;;;;;4.15;0.20;;;12.70;99.90;;;12.07;87.11;100127.22;4989352;28;20050;-61
2021/05/19 01:06:36;;;;;;;2.40;0.10;;;12.70;99.90;;;12.02;87.19;100129.47;4989691;28;20379;-58
2021/05/19 01:11:49;;;;;;;1.95;0.13;;;12.50;99.90;;;11.90;87.54;100122.94;4966692;28;20152;-59
2021/05/19 01:14:15;;;;;;;1.67;0.20;;;12.40;99.90;;;11.86;87.62;100121.63;4989491;28;20038;-58
2021/05/19 01:16:41;;;;;;;2.03;0.40;;;12.40;99.90;;;11.85;87.42;100105.16;4989449;28;20156;-59
2021/05/19 01:19:08;;;;;;;4.55;0.40;;;12.40;99.90;;;11.80;87.55;100110.06;4956564;28;20564;-59
2021/05/19 01:21:35;;;;;;;2.50;0.20;;;12.40;99.90;;;11.79;88.09;100107.59;4988818;28;20534;-59
2021/05/19 01:24:06;;;;;;;3.60;0.15;;;12.30;99.90;;;11.75;87.92;100098.44;4988895;28;20034;-57
2021/05/19 01:26:32;;;;;;;0.85;0.10;;;12.30;99.90;;;11.74;87.51;100088.97;4961409;28;20361;-59
2021/05/19 01:29:01;;;;;;;1.60;0.13;;;12.30;99.90;;;11.76;86.57;100090.44;4989203;28;20045;-58
2021/05/19 01:31:27;;;;;;;1.65;0.10;;;12.30;99.90;;;11.76;86.52;100087.03;4988804;28;20030;-56
2021/05/19 01:33:53;;;;;;;2.30;0.20;;;12.30;99.90;;;11.73;86.37;100092.56;4988945;28;20041;-58
2021/05/19 01:36:19;;;;;;;2.83;0.20;;;12.30;99.90;;;11.67;86.74;100093.19;4988979;28;20431;-56
2021/05/19 01:38:46;;;;;;;0.70;0.15;;;12.20;99.90;;;11.65;87.03;100085.53;4989146;28;20045;-58
2021/05/19 01:41:12;;;;;;;0.43;0.10;;;12.20;99.90;;;11.69;87.08;100083.41;4988647;28;20038;-58
2021/05/19 01:43:38;;;;;;;1.70;0.13;;;12.20;99.90;;;11.78;87.03;100082.50;4988779;28;20051;-59
2021/05/19 01:46:06;;;;;;;1.52;0.20;;;12.30;99.90;;;11.72;87.35;100072.66;4989025;28;20402;-58
2021/05/19 01:48:34;;;;;;;0.85;0.10;;;12.30;99.90;;;11.62;87.80;100075.41;4988544;28;20458;-59
2021/05/19 01:51:01;;;;;;;0.77;0.10;;;12.20;99.90;;;11.63;87.57;100066.59;4988902;28;20390;-59
2021/05/19 01:53:30;;;;;;;0.88;0.10;;;12.20;99.90;;;11.57;87.47;100068.06;4988675;28;20038;-56
2021/05/19 01:55:56;;;;;;;0.60;0.10;;;12.10;99.90;;;11.81;84.03;100074.34;4988498;28;20439;-54
2021/05/19 01:58:22;;;;;;;0.47;0.00;;;12.20;99.90;;;11.88;83.22;100070.88;4988404;28;20026;-58
2021/05/19 02:00:48;;;;;;;1.33;0.10;;;12.30;99.90;;;11.97;82.40;100071.72;4988353;28;20026;-59
2021/05/19 02:03:14;;;;;;;1.38;0.08;;;12.40;99.90;;;11.85;84.43;100070.41;4988848;28;20532;-59
2021/05/19 02:05:41;;;;;;;2.72;0.10;;;12.40;99.90;;;11.72;85.77;100085.72;4987938;28;20038;-59
2021/05/19 02:08:09;;;;;;;1.65;0.20;;;12.30;99.90;;;11.64;86.98;100081.28;4988504;28;20046;-59
2021/05/19 02:10:37;;;;;;;1.05;0.00;;;12.30;99.90;;;11.62;87.73;100080.63;4988095;28;20037;-58
2021/05/19 02:13:07;;;;;;;1.02;0.10;;;12.20;99.90;;;11.59;87.32;100086.97;4988404;28;20042;-58
2021/05/19 02:15:34;;;;;;;1.48;0.10;;;12.20;99.90;;;11.67;86.66;100087.97;4988153;28;20038;-58
2021/05/19 02:18:01;;;;;;;1.65;0.10;;;12.20;99.90;;;11.64;87.13;100084.72;4985447;28;20129;-58
2021/05/19 02:20:28;;;;;;;2.28;0.10;;;12.20;99.90;;;11.53;87.45;100079.78;4987566;28;20042;-59
2021/05/19 02:22:54;;;;;;;1.27;0.10;;;12.10;99.90;;;11.47;87.89;100079.59;4987035;28;20042;-58
2021/05/19 02:25:23;;;;;;;2.17;0.20;;;12.10;99.90;;;11.39;88.43;100088.22;4988297;28;20105;-58
2021/05/19 02:27:51;;;;;;;2.35;0.17;;;12.00;99.90;;;11.43;88.32;100080.91;4986435;28;20394;-58
2021/05/19 02:30:19;;;;;;;1.23;0.20;;;12.00;99.90;;;11.43;88.26;100075.69;4987967;28;20474;-58
2021/05/19 02:32:47;;;;;;;0.75;0.20;;;12.00;99.90;;;11.44;88.25;100077.31;4986383;28;20387;-59
2021/05/19 02:35:13;;;;;;;3.22;0.10;;;12.00;99.90;;;11.43;88.55;100084.31;4987860;28;20034;-57
2021/05/19 02:37:40;;;;;;;0.85;0.00;;;12.00;99.90;;;11.40;87.01;100084.63;4987001;28;20049;-56
2021/05/19 02:40:10;;;;;;;0.38;0.10;;;12.00;99.90;;;11.42;85.50;100095.75;4986574;28;20038;-59
2021/05/19 02:42:36;;;;;;;0.10;0.00;;;11.90;99.90;;;11.36;85.47;100096.38;4987740;28;20046;-58
2021/05/19 02:45:05;;;;;;;0.10;0.00;;;11.90;99.90;;;11.35;84.34;100094.72;4986804;28;20466;-58
2021/05/19 02:47:32;;;;;;;0.20;0.00;;;11.90;99.90;;;11.30;84.45;100099.63;5275404;23;20014;-57
2021/05/19 02:49:58;;;;;;;0.68;0.00;;;11.90;99.90;;;11.24;83.55;100097.66;5106611;23;20576;-57
2021/05/19 02:52:24;;;;;;;0.20;0.00;;;11.80;99.90;;;11.23;83.24;100090.81;4987520;28;20034;-57
2021/05/19 02:54:50;;;;;;;0.32;0.00;;;11.80;99.90;;;11.24;83.34;100097.66;4987847;28;20473;-59
2021/05/19 02:57:16;;;;;;;0.05;0.00;;;11.80;99.90;;;11.17;82.64;100091.44;4987395;28;20042;-58
2021/05/19 02:59:42;;;;;;;1.95;0.00;;;11.70;99.90;;;11.10;81.47;100091.25;4987811;28;20085;-57
2021/05/19 03:02:08;;;;;;;0.00;0.00;;;11.70;99.90;;;11.16;77.90;100087.19;4987836;28;20065;-58
2021/05/19 03:04:34;;;;;;;1.35;0.00;;;11.70;99.90;;;10.94;80.38;100099.78;4987309;28;20402;-58
2021/05/19 03:07:00;;;;;;;0.60;0.00;;;11.50;99.90;;;10.76;81.64;100096.47;4988436;28;20037;-57
2021/05/19 03:09:26;;;;;;;2.80;0.00;;;11.40;99.90;;;10.69;82.16;100098.03;4990864;28;20038;-58
2021/05/19 03:11:52;;;;;;;0.00;0.00;;;11.30;99.90;;;10.71;81.50;100095.28;4991851;28;20069;-56
2021/05/19 03:14:18;;;;;;;0.00;0.00;;;11.20;99.90;;;10.67;80.61;100078.31;4991978;28;20438;-58
2021/05/19 03:16:44;;;;;;;0.52;0.00;;;11.20;99.90;;;10.64;80.04;100082.88;4991184;28;20104;-58
2021/05/19 03:19:10;;;;;;;0.08;0.00;;;11.10;99.90;;;10.54;79.10;100081.34;4991609;28;20045;-58
2021/05/19 03:21:36;;;;;;;0.00;0.00;;;11.00;99.90;;;10.41;79.39;100083.53;4991558;28;20458;-56
2021/05/19 03:24:02;;;;;;;0.00;0.00;;;10.90;99.90;;;10.43;77.71;100097.22;4991202;28;20086;-58
2021/05/19 03:26:28;;;;;;;0.03;0.00;;;10.90;99.90;;;10.30;79.54;100092.44;4991320;28;20037;-57
2021/05/19 03:28:54;;;;;;;0.10;0.00;;;10.80;99.90;;;10.34;78.40;100096.38;4991188;28;20070;-57
2021/05/19 03:31:21;;;;;;;0.00;0.00;;;10.80;99.90;;;10.47;75.22;100106.34;4991456;28;20505;-57
2021/05/19 03:33:47;;;;;;;0.25;0.00;;;10.90;99.90;;;10.58;74.75;100103.50;4958390;28;20050;-55
2021/05/19 03:36:13;;;;;;;0.10;0.00;;;11.00;99.90;;;10.66;74.53;100102.75;4990961;28;20493;-58
2021/05/19 03:38:39;;;;;;;0.00;0.00;;;11.10;99.90;;;10.58;75.17;100106.94;4990961;28;20034;-58
2021/05/19 03:41:07;;;;;;;0.00;0.00;;;11.10;99.90;;;10.53;75.82;100114.38;4990718;28;20397;-58
2021/05/19 03:43:34;;;;;;;0.00;0.00;;;11.10;99.90;;;10.51;75.59;100094.66;4990934;28;20084;-58
2021/05/19 03:46:02;;;;;;;0.15;0.00;;;11.00;99.90;;;10.50;76.14;100103.44;4990815;28;20034;-59
2021/05/19 03:48:28;;;;;;;0.00;0.00;;;11.00;99.90;;;10.67;73.26;100099.97;4990768;28;20026;-59
2021/05/19 03:50:54;;;;;;;0.00;0.00;;;11.10;99.90;;;10.70;73.92;100102.28;4991454;28;20319;-58
2021/05/19 03:53:20;;;;;;;0.13;0.00;;;11.20;99.90;;;10.44;75.51;100104.88;4990420;28;20053;-58
2021/05/19 03:55:47;;;;;;;0.00;0.00;;;10.90;99.90;;;10.37;74.19;100116.06;4990757;28;20066;-59
2021/05/19 03:58:14;;;;;;;0.47;0.00;;;10.80;99.90;;;10.45;74.78;100098.69;4962085;28;20093;-58
2021/05/19 04:00:40;;;;;;;0.00;0.00;;;10.80;99.90;;;10.39;75.98;100111.53;4983253;28;20402;-57
2021/05/19 04:03:07;;;;;;;0.00;0.00;;;10.80;99.90;;;10.46;74.95;100105.53;4991037;28;20034;-58
2021/05/19 04:05:36;;;;;;;0.00;0.00;;;10.90;99.90;;;10.61;73.56;100106.63;4990325;28;20031;-58
2021/05/19 04:08:04;;;;;;;0.05;0.00;;;10.90;99.90;;;10.52;74.78;100096.31;4990474;28;20089;-58
2021/05/19 04:10:31;;;;;;;0.20;0.00;;;10.90;99.90;;;10.48;74.78;100106.22;4990450;28;20079;-58
2021/05/19 04:12:57;;;;;;;0.43;0.00;;;10.90;99.90;;;10.55;74.70;100096.81;4990362;28;20519;-57
2021/05/19 04:15:25;;;;;;;0.20;0.00;;;11.00;99.90;;;10.63;73.62;100099.47;4990546;28;20042;-57
2021/05/19 04:17:52;;;;;;;0.00;0.00;;;11.00;99.90;;;10.70;71.59;100086.66;4989981;28;20044;-57
2021/05/19 04:20:19;;;;;;;0.10;0.00;;;11.00;99.90;;;10.65;73.25;100099.31;4990543;28;20038;-56
2021/05/19 04:22:45;;;;;;;0.00;0.00;;;11.00;99.90;;;10.62;72.98;100110.03;4990334;28;20482;-57
2021/05/19 04:25:13;;;;;;;0.03;0.00;;;11.00;99.90;;;10.57;73.72;100101.88;4990343;28;20031;-55
2021/05/19 04:27:40;;;;;;;0.00;0.00;;;11.00;99.90;;;10.62;72.72;100112.66;4990312;28;20049;-55
2021/05/19 04:30:08;;;;;;;0.80;0.00;;;11.00;99.90;;;10.76;72.15;100112.09;4989668;28;20544;-57
2021/05/19 04:32:34;;;;;;;0.00;0.00;;;11.10;99.90;;;10.98;69.91;100121.16;4990139;28;20500;-57
2021/05/19 04:35:02;;;;;;;0.00;0.00;;;11.30;99.90;;;11.03;69.82;100105.06;4989677;28;20391;-58
2021/05/19 04:37:28;;;;;;;0.00;0.00;;;11.40;99.90;;;10.86;71.26;100109.38;4990369;28;20157;-56
2021/05/19 04:39:54;;;;;;;0.00;0.00;;;11.30;99.90;;;10.77;72.75;100125.94;4989962;28;20057;-56
2021/05/19 04:42:20;;;;;;;0.10;0.00;;;11.30;99.90;;;10.86;71.06;100107.59;4989720;28;20061;-56
2021/05/19 04:44:45;;;;;;;0.00;0.00;;;11.30;99.90;;;10.83;71.25;100120.13;4990066;28;20461;-56
2021/05/19 04:47:11;;;;;;;0.00;0.00;;;11.30;99.90;;;10.76;71.38;100145.97;4963759;28;20497;-52
2021/05/19 04:49:37;;;;;;;0.00;0.00;;;11.30;99.90;;;10.79;70.72;100121.41;4989404;28;20104;-58
2021/05/19 04:52:03;;;;;;;0.00;0.00;;;11.30;99.90;;;10.85;70.52;100113.78;4989681;28;20489;-55
2021/05/19 04:54:29;;;;;;;0.00;0.00;;;11.30;99.90;;;11.02;70.11;100126.88;4989190;28;20513;-54
2021/05/19 04:56:55;;;;;;;0.10;0.00;;;11.40;99.90;;;10.86;71.28;100115.41;4989730;28;20117;-55
2021/05/19 04:59:21;;;;;;;0.47;0.00;;;11.40;99.90;;;10.84;71.67;100119.97;4989230;28;20042;-55
2021/05/19 05:01:47;;;;;;;0.00;0.00;;;11.30;99.90;;;11.07;69.22;100137.66;4989328;28;20042;-54
2021/05/19 05:04:13;;;;;;;0.10;0.00;;;11.50;99.90;;;11.04;70.46;100115.31;4989522;28;20117;-58
2021/05/19 05:06:39;;;;;;;0.05;0.00;;;11.50;99.90;;;11.22;68.85;100110.03;4989211;28;20076;-55
2021/05/19 05:09:05;;;;;;;0.00;0.00;;;11.60;99.90;;;11.21;69.12;100122.25;4989330;28;20434;-52
2021/05/19 05:11:31;;;;;;;0.00;0.00;;;11.70;99.90;;;11.21;68.89;100132.69;4988966;28;20136;-53
2021/05/19 05:13:57;;;;;;;0.00;0.00;;;11.80;99.90;;;11.49;66.64;100108.97;4989548;28;20089;-56
2021/05/19 05:16:23;;;;;;;0.03;0.00;;;11.90;99.90;;;11.58;66.02;100116.66;4988828;28;20033;-54
2021/05/19 05:18:49;;;;;;;0.00;0.00;;;12.00;99.90;;;11.61;66.00;100118.94;4989124;28;20033;-57
2021/05/19 05:21:15;;;;;;;0.00;0.00;;;12.00;99.90;;;11.52;67.58;100137.34;4989385;28;20041;-57
2021/05/19 05:23:41;;;;;;;0.00;0.00;;;12.00;99.90;;;11.66;66.43;100130.72;4988712;28;20813;-57
2021/05/19 05:26:07;;;;;;;0.10;0.00;;;12.10;99.90;;;11.66;67.23;100154.19;4989143;28;20058;-53
2021/05/19 05:28:33;;;;;;;0.40;0.00;;;12.20;99.90;;;11.61;67.17;100142.44;4988437;28;20088;-57
2021/05/19 05:30:59;;;;;;;0.00;0.00;;;12.10;99.90;;;11.60;67.41;100140.81;4988553;28;20034;-55
2021/05/19 05:33:25;;;;;;;0.00;0.00;;;12.10;99.90;;;11.67;66.30;100154.03;4988783;28;20044;-55
2021/05/19 05:35:51;;;;;;;0.00;0.00;;;12.20;99.90;;;11.71;66.76;100146.72;4988933;28;20469;-58
2021/05/19 05:38:18;;;;;;;0.08;0.00;;;12.20;99.90;;;11.68;66.69;100157.47;4965512;28;20375;-55
2021/05/19 05:40:44;;;;;;;0.10;0.00;;;12.20;99.90;;;11.56;68.41;100149.91;4986727;28;20039;-54
2021/05/19 05:43:10;;;;;;;0.10;0.00;;;12.10;99.90;;;11.51;69.64;100157.41;4988933;28;20037;-51
2021/05/19 05:45:36;;;;;;;0.55;0.00;;;12.10;99.90;;;11.42;70.18;100157.53;4988707;28;20117;-55
2021/05/19 05:48:02;;;;;;;0.00;0.00;;;12.00;99.90;;;11.58;68.48;100163.63;4988669;28;20121;-55
2021/05/19 05:50:28;;;;;;;0.00;0.00;;;12.10;99.90;;;11.57;70.10;100171.59;4988114;28;20046;-56
2021/05/19 05:52:54;;;;;;;2.75;0.00;;;12.10;99.90;;;11.37;72.57;100180.66;4988233;28;20043;-52
2021/05/19 05:55:21;;;;;;;0.10;0.00;;;12.00;99.90;;;11.19;74.17;100173.75;4988573;28;20556;-54
2021/05/19 05:57:48;;;;;;;0.10;0.00;;;11.90;99.90;;;11.20;74.92;100172.78;4988517;28;20042;-53
2021/05/19 06:00:16;;;;;;;0.10;0.00;;;11.80;99.90;;;11.23;75.48;100172.47;4988614;28;20041;-54
2021/05/19 06:02:42;;;;;;;0.10;0.00;;;11.90;99.90;;;11.22;76.50;100181.25;4988335;28;20040;-53
2021/05/19 06:05:10;;;;;;;0.08;0.00;;;11.80;99.90;;;11.19;76.28;100170.31;4987788;28;20023;-58
2021/05/19 06:07:37;;;;;;;0.08;0.00;;;11.80;99.90;;;11.28;75.87;100178.03;4988297;28;20113;-57
2021/05/19 06:10:05;;;;;;;0.10;0.00;;;11.80;99.90;;;11.40;75.91;100186.38;4988071;28;20034;-54
2021/05/19 06:12:31;;;;;;;3.92;0.00;;;11.90;99.90;;;11.46;75.12;100177.94;4988352;28;20109;-55
2021/05/19 06:14:57;;;;;;;0.10;0.00;;;12.00;99.90;;;11.66;72.86;100181.09;4987858;28;20405;-57
2021/05/19 06:17:24;;;;;;;0.00;0.00;;;12.10;99.90;;;11.79;73.21;100180.69;4988345;28;20046;-56
2021/05/19 06:19:51;;;;;;;0.10;0.00;;;12.20;99.90;;;11.76;73.94;100181.78;4988242;28;20039;-55
2021/05/19 06:22:18;;;;;;;0.10;0.00;;;12.30;99.90;;;11.69;72.91;100175.56;4987914;28;20129;-55
2021/05/19 06:24:43;;;;;;;0.85;0.00;;;12.30;99.90;;;11.93;70.30;100187.88;4988698;28;20030;-55
2021/05/19 06:27:11;;;;;;;0.00;0.00;;;12.40;99.90;;;12.09;66.00;100180.09;4987843;28;20053;-56
2021/05/19 06:29:37;;;;;;;0.00;0.00;;;12.50;99.90;;;12.23;65.83;100189.91;4987965;28;20049;-56
2021/05/19 06:32:03;;;;;;;0.00;0.00;;;12.70;99.90;;;12.33;64.71;100184.50;4987848;28;20042;-56
2021/05/19 06:34:29;;;;;;;0.00;0.00;;;12.80;99.90;;;12.38;64.57;100178.78;4988340;28;20038;-53
2021/05/19 06:36:55;;;;;;;0.00;0.00;;;12.90;99.90;;;12.43;64.06;100186.97;4988091;28;20413;-57
2021/05/19 06:39:22;;;;;;;0.10;0.00;;;12.90;99.90;;;12.36;66.63;100188.59;4987595;28;20397;-53
2021/05/19 06:41:50;;;;;;;0.10;0.00;;;12.90;99.90;;;12.15;69.54;100184.66;4987976;28;20038;-53
2021/05/19 06:44:18;;;;;;;0.10;0.00;;;12.80;99.90;;;12.02;71.22;100189.53;4990701;28;20057;-57
2021/05/19 06:46:44;;;;;;;0.10;0.00;;;12.70;99.90;;;11.96;72.17;100190.19;4992166;28;20129;-55
2021/05/19 06:49:12;;;;;;;0.57;0.00;;;12.60;99.90;;;11.93;72.94;100203.53;4991406;28;20133;-58
2021/05/19 06:51:38;;;;;;;0.50;0.00;;;12.50;99.90;;;11.95;73.20;100198.97;4974289;28;20497;-59
2021/05/19 06:54:05;;;;;;;0.98;0.00;;;12.50;99.90;;;11.85;74.33;100195.69;4991798;28;20482;-57
2021/05/19 06:56:31;;;;;;;2.20;0.00;;;12.40;99.90;;;11.93;73.88;100196.53;4991250;28;20065;-55
2021/05/19 06:58:57;;;;;;;0.00;0.00;;;12.50;99.90;;;11.88;74.97;100196.19;4991905;28;20046;-54
2021/05/19 07:01:24;;;;;;;0.00;0.00;;;12.50;99.90;;;11.88;75.87;100200.59;4986655;28;20174;-59
2021/05/19 07:03:50;;;;;;;0.30;0.00;;;12.40;99.90;;;11.91;75.69;100195.06;4991597;28;20478;-58
2021/05/19 07:06:18;;;;;;;0.13;0.00;;;12.40;99.90;;;11.92;75.61;100207.13;4991914;28;20042;-58
2021/05/19 07:08:44;;;;;;;1.83;0.00;;;12.50;99.90;;;12.01;75.38;100207.97;4991438;28;20049;-58
2021/05/19 07:11:10;;;;;;;0.20;0.10;;;12.50;99.90;;;11.96;75.51;100196.22;4991453;28;20117;-54
2021/05/19 07:13:36;;;;;;;1.35;0.03;;;12.60;99.90;;;12.01;74.95;100208.78;4991089;28;20468;-57
2021/05/19 07:16:03;;;;;;;0.20;0.03;;;12.60;99.90;;;12.04;75.01;100210.28;4991637;28;20038;-57
2021/05/19 07:18:29;;;;;;;1.58;0.10;;;12.60;99.90;;;12.00;75.62;100204.53;4990977;28;20053;-59
2021/05/19 07:20:55;;;;;;;0.80;0.10;;;12.60;99.90;;;12.17;75.48;100210.63;4991285;28;20472;-55
2021/05/19 07:23:22;;;;;;;0.10;0.08;;;12.70;99.90;;;12.28;75.17;100212.94;4991124;28;20126;-57
2021/05/19 07:25:48;;;;;;;0.50;0.10;;;12.80;99.90;;;12.36;75.12;100215.53;4990723;28;20027;-56
2021/05/19 07:28:15;;;;;;;0.77;0.10;;;12.90;99.90;;;12.39;75.32;100215.22;4990849;28;20037;-57
2021/05/19 07:30:43;;;;;;;0.57;0.10;;;13.00;99.90;;;12.43;75.46;100215.69;4965266;28;20267;-57
2021/05/19 07:33:11;;;;;;;2.50;0.00;;;13.00;99.90;;;12.49;75.22;100220.28;4999935;23;20046;-55
2021/05/19 07:35:38;;;;;;;0.80;0.10;;;13.10;99.90;;;12.56;74.46;100221.28;4986955;28;20398;-57
2021/05/19 07:38:09;;;;;;;0.75;0.10;;;13.20;99.90;;;12.69;74.30;100212.94;4990684;28;20030;-56
2021/05/19 07:40:36;;;;;;;0.20;0.00;;;13.20;99.90;;;12.76;74.19;100216.53;4990100;28;20046;-56
2021/05/19 07:43:02;;;;;;;0.50;0.10;;;13.30;99.90;;;12.88;74.37;100215.19;4990030;28;20450;-57
2021/05/19 07:45:28;;;;;;;0.40;0.10;;;13.40;99.90;;;12.83;73.56;100207.84;4991040;28;20090;-58
2021/05/19 07:47:54;;;;;;;0.80;0.10;;;13.40;99.90;;;12.97;73.31;100214.22;4990117;28;20080;-55
2021/05/19 07:50:21;;;;;;;0.08;0.00;;;13.50;99.90;;;12.97;73.06;100219.44;4990862;28;20149;-57
2021/05/19 07:52:47;;;;;;;0.28;0.10;;;13.60;99.90;;;13.08;72.99;100220.91;4990650;28;20490;-58
2021/05/19 07:55:30;;;;;;;0.20;0.00;;;13.70;99.90;;;13.09;73.51;100220.72;4989936;28;20060;-57
2021/05/19 07:58:02;;;;;;;0.20;0.00;;;13.70;99.90;;;13.07;74.31;100214.03;4990008;28;20050;-56
2021/05/19 08:03:02;;;;;;;0.38;0.00;;;13.60;99.90;;;12.70;75.49;100220.63;4989450;28;20050;-58
2021/05/19 08:05:28;;;;;;;0.40;0.00;;;13.40;99.90;;;12.94;74.94;100219.75;4990476;28;20034;-55
2021/05/19 08:07:54;;;;;;;0.40;0.10;;;13.50;99.90;;;13.11;75.45;100229.22;4990336;28;20375;-56
2021/05/19 08:10:21;;;;;;;0.30;0.10;;;13.60;99.90;;;13.14;75.99;100228.09;4990640;28;20042;-53
2021/05/19 08:12:47;;;;;;;0.75;0.10;;;13.70;99.90;;;13.15;76.60;100237.56;4990150;28;20474;-56
2021/05/19 08:15:13;;;;;;;0.75;0.10;;;13.80;99.90;;;13.21;77.01;100234.31;4990453;28;20049;-54
2021/05/19 08:17:39;;;;;;;2.20;0.10;;;13.80;99.90;;;13.28;77.36;100236.06;4990179;28;20097;-54
2021/05/19 08:20:07;;;;;;;1.20;0.10;;;13.90;99.90;;;13.44;77.40;100240.44;4989789;28;20038;-52
2021/05/19 08:22:33;;;;;;;1.42;0.13;;;14.00;99.90;;;13.43;77.89;100240.63;4990498;28;20040;-52
2021/05/19 08:24:59;;;;;;;2.60;0.10;;;14.10;99.90;;;13.49;77.78;100246.00;4990220;28;20049;-54
2021/05/19 08:27:25;;;;;;;0.22;0.10;;;14.10;99.90;;;13.52;78.01;100250.91;4988711;28;20695;-55
2021/05/19 08:29:53;;;;;;;0.82;0.10;;;14.10;99.90;;;13.61;78.07;100251.69;4990237;28;20129;-56
2021/05/19 08:32:19;;;;;;;0.55;0.10;;;14.20;99.90;;;13.65;78.24;100254.78;4989498;28;20073;-53
2021/05/19 08:34:45;;;;;;;2.67;0.10;;;14.30;99.90;;;13.72;78.11;100259.16;4989813;28;20061;-55
2021/05/19 08:37:11;;;;;;;0.60;0.05;;;14.30;99.90;;;13.74;78.09;100262.41;4989836;28;20034;-53
2021/05/19 08:39:37;;;;;;;3.45;0.10;;;14.40;99.90;;;13.74;78.36;100257.19;4983696;28;20168;-54
2021/05/19 08:42:04;;;;;;;0.68;0.50;;;14.40;99.90;;;13.76;78.39;100263.06;4989764;28;20057;-54
2021/05/19 08:44:29;;;;;;;0.30;0.03;;;14.40;99.90;;;13.68;78.62;100272.78;4989885;28;20030;-56
2021/05/19 08:46:57;;;;;;;0.40;0.10;;;14.40;99.90;;;13.64;78.94;100272.28;4990206;28;20575;-54
2021/05/19 08:49:25;;;;;;;0.35;0.10;;;14.30;99.90;;;13.56;79.21;100285.41;4989450;28;20120;-54
2021/05/19 08:51:53;;;;;;;2.92;0.10;;;14.30;99.90;;;13.52;79.41;100277.06;4990087;28;20074;-49
2021/05/19 08:54:20;;;;;;;0.50;0.17;;;14.20;99.90;;;13.37;79.99;100283.97;4989208;28;20042;-53
2021/05/19 08:56:49;;;;;;;0.43;0.10;;;14.10;99.90;;;13.12;80.24;100295.44;4989874;28;20041;-53
2021/05/19 08:59:17;;;;;;;0.25;0.10;;;13.90;99.90;;;13.04;80.66;100295.44;4989415;28;20405;-55
2021/05/19 09:01:49;;;;;;;0.63;0.10;;;13.70;99.90;;;13.16;80.45;100291.53;4982255;28;20053;-55
2021/05/19 09:04:25;;;;;;;0.22;0.10;;;13.80;99.90;;;13.28;80.12;100304.09;4989198;28;20046;-54
2021/05/19 09:06:59;;;;;;;0.40;0.10;;;13.90;99.90;;;13.33;80.00;100308.84;4982188;28;20042;-56
2021/05/19 09:09:35;;;;;;;1.08;0.17;;;13.90;99.90;;;13.27;79.88;100306.88;4989179;28;20034;-57
2021/05/19 09:12:05;;;;;;;;;;;13.90;99.90;;;13.34;80.29;100310.47;4989531;28;20041;-52
2021/05/19 09:15:00;;;;;;;0.50;0.10;;;14.00;99.90;;;13.41;79.47;100311.44;4987851;28;19921;-53
2021/05/19 09:17:34;;;;;;;0.15;0.08;;;14.00;99.90;;;13.44;79.50;100313.72;4987459;28;20450;-52
2021/05/19 09:20:09;;;;;;;0.40;0.10;;;14.10;99.90;;;13.53;79.35;100314.53;4961582;28;20043;-54
2021/05/19 09:22:37;;;;;;;1.00;0.25;;;14.10;99.90;;;13.63;79.32;100319.59;4983414;28;20173;-54
2021/05/19 09:25:32;;;;;;;0.60;0.10;;;14.20;99.90;;;13.67;79.04;100316.47;4981656;28;20276;-50
2021/05/19 09:28:06;;;;;;;1.20;0.00;;;14.30;99.90;;;13.76;78.33;100320.66;4986449;28;20052;-54
2021/05/19 09:30:45;;;;;;;1.45;0.10;;;14.30;99.90;;;13.82;78.16;100319.19;4983996;28;20039;-54
2021/05/19 09:33:22;;;;;;;0.20;0.00;;;14.40;99.90;;;13.83;77.71;100324.25;4978096;28;20124;-54
2021/05/19 09:36:16;;;;;;;1.05;0.10;;;14.40;99.90;;;13.84;76.35;100323.25;4985861;28;20406;-55
2021/05/19 09:38:45;;;;;;;0.25;0.05;;;14.50;99.90;;;13.87;76.42;100325.53;4987763;28;20046;-55
2021/05/19 09:41:31;;;;;;;0.55;0.10;;;14.40;99.90;;;13.91;76.24;100329.47;4988071;28;20617;-56
2021/05/19 09:44:00;;;;;;;2.45;0.10;;;14.40;99.90;;;13.90;76.12;100332.25;4988313;28;20069;-55
2021/05/19 09:49:20;;;;;;;0.20;0.00;;;14.50;99.90;;;13.94;73.78;100333.56;4986262;28;20064;-53
2021/05/19 09:51:52;;;;;;;0.95;0.35;;;14.50;99.90;;;13.95;74.31;100324.72;4986349;28;20117;-52
2021/05/19 09:54:32;;;;;;;0.30;0.10;;;14.50;99.90;;;13.93;74.54;100331.91;4987565;28;20050;-55
2021/05/19 09:57:09;;;;;;;0.95;0.00;;;14.50;99.90;;;13.81;74.27;100338.50;4983278;28;20138;-52
2021/05/19 09:59:36;;;;;;;1.45;0.03;;;14.40;99.90;;;13.67;74.61;100333.97;4988156;28;20046;-55
2021/05/19 10:02:04;;;;;;;0.25;0.10;;;14.30;99.90;;;13.55;75.00;100336.13;4987753;28;20121;-55
2021/05/19 10:04:37;;;;;;;0.13;0.00;;;14.20;99.90;;;13.44;75.45;100336.47;4987916;28;20034;-55
2021/05/19 10:07:09;;;;;;;0.28;0.10;;;14.10;99.90;;;13.47;75.97;100336.94;4989176;28;20518;-53
2021/05/19 10:09:35;;;;;;;0.52;0.10;;;14.00;99.90;;;13.15;76.70;100358.72;4971209;28;20375;-53
2021/05/19 10:12:03;;;;;;;0.30;0.10;;;13.90;99.90;;;12.99;76.50;100350.03;4987139;28;20061;-56
2021/05/19 10:14:29;;;;;;;0.80;0.20;;;13.70;99.90;;;13.14;75.81;100351.84;4987437;28;20099;-54
2021/05/19 10:17:14;;;;;;;2.28;0.10;;;13.80;99.90;;;13.20;75.84;100356.44;4982702;28;20034;-57
2021/05/19 10:19:57;;;;;;;1.23;0.13;;;13.80;99.90;;;13.39;75.49;100355.28;4982269;28;20544;-57
2021/05/19 10:22:25;;;;;;;0.15;0.00;;;13.90;99.90;;;13.37;74.73;100359.84;4986090;28;20382;-54